首页
METAR-TAF:

METAR-TAF

机场 :

斯图加特机场

斯图加特, 德国

纬度: 48-41N, 经度: 009-13E, 海拔: 396米

当前天气观测

该预报发布于22分钟前的02:50 UTC
风速2节,风向南转南东
温度 -3°C
湿度 93%
气压 1022 hPa
能见度10公里或以上
1500米以下无云,无积雨云

METAR: EDDS 260250Z 15002KT CAVOK M03/M04 Q1022

时间: 04:12 (03:12 UTC)

预报

该预报发布于4小时和12分钟前的23:00 UTC
预报有效从26日的 00点(UTC)到 26日的 24点(UTC)
风速2节,风向多变
能见度10公里或以上
1500米以下无云,无积雨云
短暂存在
从 26日的 01点(UTC)到 26日的 08点(UTC)
能見度: 3000
碎片雾
几率 30% :
短暂存在
从 26日的 02点(UTC)到 26日的 08点(UTC)
能見度: 0400
冻雾

TAF: EDDS 252300Z 2600/2624 VRB02KT CAVOK TEMPO 2601/2608 3000 BCFG PROB30 TEMPO 2602/2608 0400 FZFG

超过4000个机场的气象观测和天气预报(METAR&TAF报告)。

可查询的气象台以黄色和红色小点在地图上表示。

将鼠标移到小点上方,可查看气象台名称。

然后点击查看天气观测和预报。

如需切换地图:点击带黑十字的绿色按钮放大地图;点击带横线的绿色按钮缩小地图;或者点击绿色箭头查看邻近地区的地图。


METAR-TAF: